Garden Grove, California
Current Conditions -  °F | °C
As of 7:53 PM on Monday 20 Oct 2014 (Local Time) from KFUL Reporting Station
NA  
Wind Chill: 69°   Ceiling: NA
Heat Index: 69°   Visibility: 10mi
Dew Point: 60°   Wind: 3mph
Humidity: 73%   Direction: 270°W
Pressure: 29.88"   Gusts: NA
Location:  33.78°N, 117.93°W
Report Text: KFUL 210253Z 27003KT 10SM 21/16 A2988 RMK AO2 SLP118 T02060156 53010 $
Loading
Personal Weather Stations






























Interactive Weather Map
Tropical Storm Tracking
New forecast layout! Learn more

10-Day Weather Forecast

Advertisements
Track Severe Weather on mobile